Terminal Aerodrome Forecast
Issued by NWS Sioux Falls, SD

Home | Current Version | Previous Version | Graphics & Text | Print | Product List | Glossary On
Versions: 1 2 3 4 5 6 7 8 9 10 11 12 13 14 15 16 17 18 19 20 21 22 23 24 25
973
FTUS43 KFSD 240530
TAFSUX
TAF
KSUX 240530Z 2406/2506 17006KT P6SM FEW200
     FM241600 29011KT P6SM FEW200
     FM241900 31021G36KT P6SM SCT100
     FM250000 32015KT P6SM SKC
     FM250100 30008KT P6SM SKC=

USA.gov is the U.S. government's official web portal to all federal, state and local government web resources and services.